Time;durP1;ratioP1;P1;durP2;ratioP2;P2;SDS_P1;SDS_P2;PMS_P1;PMS_P2;Temp;Humidity;BMP_temperature;BMP_pressure;BME280_temperature;BME280_humidity;BME280_pressure;Samples;Min_cycle;Max_cycle;Signal;HPM_P1;HPM_P2
2022/12/22 03:26:59;;;;;;;59.85;19.20;;;;;;;0.38;60.56;101585.19;5026676;28;20420;-77
2022/12/22 03:29:25;;;;;;;53.87;18.17;;;;;;;0.36;61.05;101581.81;5031351;28;20394;-78
2022/12/22 03:31:50;;;;;;;48.90;18.67;;;;;;;0.45;61.03;101583.09;5004132;28;20422;-77
2022/12/22 03:34:16;;;;;;;48.23;18.00;;;;;;;0.49;60.47;101575.03;5027400;28;20434;-78
2022/12/22 03:36:41;;;;;;;45.75;17.35;;;;;;;0.51;60.81;101581.00;5028670;28;20897;-78
2022/12/22 03:39:08;;;;;;;54.13;17.40;;;;;;;0.48;60.74;101575.09;5026692;28;20406;-77
2022/12/22 03:47:02;;;;;;;51.55;17.08;;;;;;;0.57;60.77;101579.81;5023994;28;20410;-78
2022/12/22 03:49:27;;;;;;;48.47;18.50;;;;;;;0.60;60.60;101584.88;5016727;28;20396;-78
2022/12/22 03:51:53;;;;;;;53.60;19.97;;;;;;;0.72;60.51;101580.72;5018552;28;20485;-78
2022/12/22 03:54:21;;;;;;;54.28;19.92;;;;;;;0.74;60.47;101576.28;5018200;28;20414;-79
2022/12/22 03:56:47;;;;;;;48.80;19.55;;;;;;;0.73;60.25;101575.44;5015170;28;20402;-77
2022/12/22 03:59:13;;;;;;;52.03;20.98;;;;;;;0.79;60.19;101581.25;5012076;28;20397;-78
2022/12/22 04:01:43;;;;;;;53.40;21.45;;;;;;;0.75;60.08;101573.56;5018269;28;20397;-78
2022/12/22 04:04:09;;;;;;;48.28;21.20;;;;;;;0.76;60.69;101572.66;5014569;28;20392;-78
2022/12/22 04:06:35;;;;;;;49.78;21.15;;;;;;;0.72;60.31;101568.56;5012509;28;20400;-78
2022/12/22 04:09:01;;;;;;;59.15;22.73;;;;;;;0.67;60.39;101564.50;5015549;28;20406;-77
2022/12/22 04:14:10;;;;;;;55.25;20.60;;;;;;;0.62;60.71;101572.59;5024494;28;20460;-77
2022/12/22 04:16:35;;;;;;;50.00;20.50;;;;;;;0.73;60.72;101572.81;5014786;28;20938;-78
2022/12/22 04:19:01;;;;;;;98.07;20.73;;;;;;;0.81;60.29;101574.16;5015056;28;20431;-78
2022/12/22 04:21:27;;;;;;;57.70;17.90;;;;;;;0.80;60.20;101573.34;5016842;28;20451;-78
2022/12/22 04:23:52;;;;;;;39.72;19.02;;;;;;;0.84;60.34;101572.22;5020135;28;20410;-77
2022/12/22 04:26:21;;;;;;;78.63;59.35;;;;;;;0.99;60.21;101575.75;5021642;28;20431;-78
2022/12/22 04:28:46;;;;;;;39.50;17.43;;;;;;;1.02;60.14;101574.75;5016366;28;20445;-78
2022/12/22 04:31:12;;;;;;;41.20;18.07;;;;;;;1.02;59.92;101570.34;5016827;28;20418;-77
2022/12/22 04:33:37;;;;;;;45.47;18.73;;;;;;;1.03;59.88;101563.38;5015830;28;20413;-77
2022/12/22 04:36:03;;;;;;;50.90;20.47;;;;;;;0.89;59.94;101569.38;5014892;28;20400;-77
2022/12/22 04:38:29;;;;;;;49.38;18.88;;;;;;;0.74;60.25;101565.84;5015964;28;20380;-77
2022/12/22 04:40:55;;;;;;;50.50;19.42;;;;;;;0.69;60.17;101567.88;5020186;28;20903;-78
2022/12/22 04:43:20;;;;;;;43.63;16.38;;;;;;;0.58;60.58;101568.47;5019212;28;20494;-77
2022/12/22 04:45:46;;;;;;;42.73;15.30;;;;;;;0.44;60.74;101560.56;5024857;28;20544;-77
2022/12/22 04:48:11;;;;;;;43.40;16.23;;;;;;;0.47;60.51;101562.97;5022600;28;20402;-77
2022/12/22 04:50:36;;;;;;;35.90;15.60;;;;;;;0.51;61.03;101565.34;5026573;28;20466;-78
2022/12/22 04:53:02;;;;;;;45.83;17.57;;;;;;;0.50;60.63;101565.41;5004218;28;20421;-78
2022/12/22 04:55:27;;;;;;;43.42;16.30;;;;;;;0.40;61.36;101566.84;5016701;28;20410;-78
2022/12/22 04:57:53;;;;;;;43.97;15.38;;;;;;;0.34;61.29;101568.88;5020386;28;20401;-78
2022/12/22 05:00:19;;;;;;;41.47;17.20;;;;;;;0.35;61.26;101572.31;5023517;28;20392;-78
2022/12/22 05:02:44;;;;;;;46.88;19.13;;;;;;;0.35;60.90;101557.50;5020757;28;20729;-79
2022/12/22 05:05:10;;;;;;;43.63;17.67;;;;;;;0.33;61.13;101553.31;5012957;28;20396;-78
2022/12/22 05:07:36;;;;;;;48.83;19.13;;;;;;;0.41;60.96;101548.50;5025059;28;20916;-78
2022/12/22 05:10:03;;;;;;;45.08;16.85;;;;;;;0.38;61.42;101549.53;5018800;28;20402;-77
2022/12/22 05:15:13;;;;;;;74.75;42.13;;;;;;;0.25;61.52;101548.47;5020362;28;20957;-78
2022/12/22 05:17:38;;;;;;;46.22;18.80;;;;;;;0.45;61.64;101542.22;5022286;28;20394;-78
2022/12/22 05:20:04;;;;;;;44.20;20.60;;;;;;;0.60;61.33;101548.34;4981761;28;20398;-77
2022/12/22 05:22:29;;;;;;;55.78;27.42;;;;;;;0.50;60.60;101541.94;4980221;28;20478;-77
2022/12/22 05:24:56;;;;;;;56.47;19.35;;;;;;;0.37;61.18;101539.16;4986241;28;20913;-78
2022/12/22 05:27:21;;;;;;;48.10;16.55;;;;;;;0.24;60.84;101546.00;4987533;28;21072;-78
2022/12/22 05:29:47;;;;;;;61.73;25.20;;;;;;;0.19;61.19;101554.88;4979377;28;20886;-78
2022/12/22 05:32:12;;;;;;;55.93;19.40;;;;;;;0.28;61.41;101553.53;4981804;28;20501;-78
2022/12/22 05:34:37;;;;;;;47.60;18.43;;;;;;;0.35;61.18;101564.50;4969936;28;20494;-78
2022/12/22 05:37:03;;;;;;;40.60;17.23;;;;;;;0.54;61.10;101567.78;4984720;28;20406;-78
2022/12/22 05:39:28;;;;;;;55.10;22.70;;;;;;;0.55;60.96;101558.19;4982003;28;20409;-76
2022/12/22 05:41:54;;;;;;;51.73;20.13;;;;;;;0.55;60.41;101566.03;4983521;28;20409;-78
2022/12/22 05:44:19;;;;;;;42.10;18.93;;;;;;;0.46;60.93;101569.97;4978650;28;20399;-78
2022/12/22 05:46:45;;;;;;;52.00;22.37;;;;;;;0.47;61.20;101558.63;4981224;28;20758;-77
2022/12/22 05:49:10;;;;;;;47.38;18.95;;;;;;;0.49;61.03;101556.75;4982207;28;20393;-78
2022/12/22 05:51:36;;;;;;;48.13;20.88;;;;;;;0.70;60.81;101569.53;5013833;28;20406;-77
2022/12/22 05:54:01;;;;;;;47.73;19.30;;;;;;;0.74;60.34;101573.69;5017964;28;20831;-78
2022/12/22 05:56:27;;;;;;;41.80;17.57;;;;;;;0.65;60.24;101575.03;5017751;28;20396;-77
2022/12/22 05:58:52;;;;;;;52.93;20.17;;;;;;;0.63;60.46;101578.63;5028837;28;20875;-78
2022/12/22 06:01:17;;;;;;;44.90;17.53;;;;;;;0.66;60.57;101565.44;5025016;28;20394;-78
2022/12/22 06:03:43;;;;;;;46.60;18.95;;;;;;;0.61;60.47;101573.50;5026920;28;20473;-78
2022/12/22 06:06:08;;;;;;;50.83;18.42;;;;;;;0.48;60.80;101570.72;5013363;28;20390;-78
2022/12/22 06:08:34;;;;;;;51.00;17.63;;;;;;;0.44;60.87;101573.59;5025611;28;20375;-78
2022/12/22 06:10:59;;;;;;;44.33;17.23;;;;;;;0.38;60.93;101591.25;5025681;28;20418;-79
2022/12/22 06:13:25;;;;;;;46.73;19.77;;;;;;;0.51;60.74;101593.22;5025249;28;20441;-78
2022/12/22 06:15:51;;;;;;;50.03;22.67;;;;;;;0.60;60.85;101581.44;5020690;28;20401;-79
2022/12/22 06:18:17;;;;;;;50.23;21.87;;;;;;;0.59;60.94;101587.56;5030844;28;20401;-78
2022/12/22 06:20:45;;;;;;;47.65;21.42;;;;;;;0.62;60.71;101584.78;5025483;28;20745;-78
2022/12/22 06:23:10;;;;;;;45.38;19.25;;;;;;;0.71;60.46;101584.28;5017193;28;20400;-77
2022/12/22 06:25:36;;;;;;;92.73;43.97;;;;;;;0.75;60.66;101588.41;5023709;28;20409;-77
2022/12/22 06:28:01;;;;;;;45.53;18.33;;;;;;;0.67;60.19;101588.84;5029005;28;20920;-77
2022/12/22 06:30:27;;;;;;;36.45;15.88;;;;;;;0.45;60.83;101589.16;5031865;28;20447;-77
2022/12/22 06:32:52;;;;;;;41.10;17.35;;;;;;;0.22;61.33;101594.75;5013730;28;20415;-78
2022/12/22 06:35:18;;;;;;;39.07;18.07;;;;;;;0.10;61.62;101599.69;5034470;28;20379;-78
2022/12/22 06:37:44;;;;;;;40.97;18.20;;;;;;;0.21;61.75;101593.06;5029337;28;20394;-78
2022/12/22 06:40:09;;;;;;;46.90;18.63;;;;;;;0.31;61.17;101595.13;5014772;28;20460;-79
2022/12/22 06:45:19;;;;;;;42.22;18.60;;;;;;;0.47;61.13;101587.31;5029902;28;20973;-78
2022/12/22 06:47:44;;;;;;;44.80;20.53;;;;;;;0.70;60.60;101583.44;5034798;28;20495;-80
2022/12/22 06:50:10;;;;;;;49.25;20.70;;;;;;;0.84;59.86;101590.50;5017595;28;20378;-79
2022/12/22 06:52:35;;;;;;;55.13;26.85;;;;;;;0.89;60.07;101598.09;5034164;28;20468;-78
2022/12/22 06:55:01;;;;;;;53.60;24.15;;;;;;;0.89;59.99;101585.88;5032053;28;20382;-79
2022/12/22 06:57:27;;;;;;;52.05;21.52;;;;;;;0.97;60.10;101590.66;5031845;28;20942;-79
2022/12/22 06:59:53;;;;;;;47.25;22.20;;;;;;;1.07;60.46;101580.53;5035058;28;20456;-79
2022/12/22 07:02:18;;;;;;;56.57;23.63;;;;;;;1.11;60.16;101580.28;5032926;28;20394;-78
2022/12/22 07:04:44;;;;;;;49.50;21.75;;;;;;;1.22;60.03;101584.88;5029343;28;20402;-79
2022/12/22 07:07:10;;;;;;;50.08;23.13;;;;;;;1.33;59.65;101586.88;5034030;28;20390;-79
2022/12/22 07:09:35;;;;;;;64.68;30.70;;;;;;;1.21;59.71;101582.38;5033155;28;20463;-80
2022/12/22 07:12:01;;;;;;;67.57;30.47;;;;;;;1.12;60.37;101587.19;5034589;28;20855;-79
2022/12/22 07:14:26;;;;;;;64.43;30.63;;;;;;;1.21;60.38;101574.53;5032031;28;20399;-78
2022/12/22 07:16:52;;;;;;;70.93;30.42;;;;;;;1.36;59.80;101586.72;5030659;28;20567;-78
2022/12/22 07:19:17;;;;;;;62.10;27.88;;;;;;;1.33;59.66;101586.88;5034818;28;20398;-79
2022/12/22 07:21:43;;;;;;;62.30;26.00;;;;;;;1.33;59.62;101584.25;5014779;28;20397;-79
2022/12/22 07:24:08;;;;;;;69.17;28.17;;;;;;;1.47;60.06;101584.31;5031004;28;20399;-79
2022/12/22 07:26:34;;;;;;;59.33;25.33;;;;;;;1.59;59.66;101577.53;5031912;28;20420;-78
2022/12/22 07:28:59;;;;;;;57.67;25.60;;;;;;;1.58;59.43;101572.38;5032464;28;20544;-79
2022/12/22 07:31:25;;;;;;;52.42;24.15;;;;;;;1.46;59.69;101584.38;5025624;28;20415;-80
2022/12/22 07:33:50;;;;;;;62.72;25.50;;;;;;;1.07;60.40;101588.38;5025448;28;20487;-80
2022/12/22 07:36:18;;;;;;;54.57;24.03;;;;;;;1.00;60.47;101585.25;5019285;28;20403;-78
2022/12/22 07:38:45;;;;;;;57.67;25.47;;;;;;;1.09;60.68;101576.91;5021677;28;20898;-79
2022/12/22 07:43:59;;;;;;;58.63;26.52;;;;;;;1.31;60.42;101589.59;5024696;28;20382;-78
2022/12/22 07:46:26;;;;;;;62.45;27.60;;;;;;;1.37;60.00;101584.94;5020481;28;20435;-79
2022/12/22 07:51:55;;;;;;;64.77;29.43;;;;;;;1.46;59.92;101573.94;4991337;28;20453;-79
2022/12/22 07:54:21;;;;;;;63.47;30.50;;;;;;;1.53;59.80;101570.03;5018461;28;20407;-77
2022/12/22 07:56:46;;;;;;;64.93;27.40;;;;;;;1.65;59.73;101578.94;5025896;28;20383;-82
2022/12/22 07:59:12;;;;;;;61.50;28.83;;;;;;;1.67;59.41;101577.91;5026596;28;20487;-78
2022/12/22 08:01:39;;;;;;;102.00;54.23;;;;;;;1.54;59.71;101579.56;5028620;28;20395;-77
2022/12/22 08:04:05;;;;;;;67.57;30.70;;;;;;;1.62;59.63;101577.34;5016552;28;20385;-77
2022/12/22 08:06:34;;;;;;;68.53;30.50;;;;;;;1.68;59.63;101565.69;5023643;28;20471;-80
2022/12/22 08:09:01;;;;;;;59.63;27.35;;;;;;;1.69;59.79;101568.22;5023373;28;20865;-78
2022/12/22 08:11:26;;;;;;;63.80;28.05;;;;;;;1.69;60.05;101554.28;5024420;28;20380;-79
2022/12/22 08:13:52;;;;;;;62.23;27.63;;;;;;;1.72;60.01;101560.19;5018852;28;20406;-79
2022/12/22 08:16:20;;;;;;;60.30;27.03;;;;;;;1.76;59.90;101550.38;5029244;28;20392;-77
2022/12/22 08:18:45;;;;;;;57.58;26.52;;;;;;;1.83;59.78;101556.91;5033538;28;20402;-78
2022/12/22 08:21:11;;;;;;;62.03;26.83;;;;;;;1.82;59.98;101552.63;5015314;28;20398;-79
2022/12/22 08:23:36;;;;;;;51.83;24.70;;;;;;;1.80;59.70;101564.09;5018135;28;20464;-79
2022/12/22 08:26:14;;;;;;;55.00;26.47;;;;;;;1.73;59.83;101550.59;5017032;28;20936;-78
2022/12/22 08:28:54;;;;;;;56.65;24.77;;;;;;;1.75;60.27;101567.00;5027219;28;20448;-79
2022/12/22 08:31:23;;;;;;;46.17;21.92;;;;;;;1.70;60.23;101563.81;5021839;28;20472;-79
2022/12/22 08:33:48;;;;;;;38.17;18.70;;;;;;;1.68;60.42;101555.25;5023667;28;20454;-80
2022/12/22 08:36:14;;;;;;;41.65;20.58;;;;;;;1.66;60.41;101557.13;5015700;28;20384;-79
2022/12/22 08:38:41;;;;;;;40.53;18.83;;;;;;;1.66;60.43;101557.94;5014519;28;20379;-79
2022/12/22 08:41:09;;;;;;;35.42;15.25;;;;;;;1.62;60.39;101564.28;5022449;28;20939;-78
2022/12/22 08:43:35;;;;;;;44.47;20.13;;;;;;;1.59;60.63;101564.47;5026413;28;20410;-78
2022/12/22 08:46:01;;;;;;;32.83;16.20;;;;;;;1.65;60.30;101568.47;5028218;28;20398;-78
2022/12/22 08:48:26;;;;;;;44.80;14.88;;;;;;;1.66;59.69;101564.94;5025291;28;20375;-79
2022/12/22 08:50:52;;;;;;;37.03;15.85;;;;;;;1.56;59.99;101562.03;5018894;28;20450;-80
2022/12/22 08:53:17;;;;;;;43.70;17.53;;;;;;;1.60;60.18;101558.28;5015963;28;20420;-81
2022/12/22 08:55:51;;;;;;;38.77;18.43;;;;;;;1.78;60.41;101548.50;5014649;28;20423;-79
2022/12/22 08:58:16;;;;;;;40.30;19.75;;;;;;;1.94;59.57;101561.50;5011348;28;20478;-80
2022/12/22 09:00:42;;;;;;;42.93;20.50;;;;;;;1.90;59.51;101555.63;5021267;28;20757;-78
2022/12/22 09:03:08;;;;;;;41.83;20.05;;;;;;;1.88;59.75;101559.28;5022166;28;20851;-77
2022/12/22 09:05:37;;;;;;;47.43;22.70;;;;;;;1.98;59.71;101551.69;5017424;28;20391;-78
2022/12/22 09:08:03;;;;;;;49.25;23.10;;;;;;;2.09;59.72;101544.88;5015109;28;20448;-77
2022/12/22 09:10:29;;;;;;;58.58;28.00;;;;;;;2.01;59.36;101546.28;5021057;28;20492;-79
2022/12/22 09:12:54;;;;;;;49.23;21.77;;;;;;;2.02;59.64;101543.59;5019648;28;20489;-78
2022/12/22 09:15:19;;;;;;;53.07;23.83;;;;;;;2.10;59.47;101541.31;5021838;28;20480;-78
2022/12/22 09:17:45;;;;;;;59.60;24.88;;;;;;;2.10;59.42;101541.31;5032236;28;20386;-79
2022/12/22 09:20:11;;;;;;;52.63;24.48;;;;;;;2.19;59.78;101541.69;5015344;28;20793;-79
2022/12/22 09:22:37;;;;;;;49.60;24.42;;;;;;;2.13;59.84;101542.09;5033009;28;20858;-79
2022/12/22 09:25:02;;;;;;;51.65;24.02;;;;;;;2.16;59.96;101537.50;5015270;28;20381;-80
2022/12/22 09:27:29;;;;;;;60.47;25.60;;;;;;;2.27;59.61;101527.22;5033249;28;20393;-79
2022/12/22 09:29:55;;;;;;;57.15;25.63;;;;;;;2.40;59.40;101529.06;5032932;28;20437;-78
2022/12/22 09:32:20;;;;;;;55.75;25.42;;;;;;;2.44;59.08;101527.91;5033000;28;20487;-78
2022/12/22 09:34:46;;;;;;;63.90;25.10;;;;;;;2.29;58.93;101527.13;5036147;28;20393;-80
2022/12/22 09:37:16;;;;;;;66.83;28.77;;;;;;;2.25;59.56;101528.22;5035388;28;20379;-78
2022/12/22 09:39:42;;;;;;;66.00;28.75;;;;;;;2.25;59.70;101529.09;5035361;28;20382;-80
2022/12/22 09:42:16;;;;;;;65.57;27.83;;;;;;;2.26;59.00;101524.69;5032687;28;20386;-79
2022/12/22 09:44:46;;;;;;;68.93;34.17;;;;;;;2.19;59.36;101519.00;5022645;28;20408;-78
2022/12/22 09:47:34;;;;;;;61.67;28.13;;;;;;;2.28;59.15;101515.78;5022855;28;20407;-78
2022/12/22 09:50:01;;;;;;;60.85;27.73;;;;;;;2.30;59.39;101520.94;5027320;28;20372;-80
2022/12/22 09:52:42;;;;;;;76.72;37.53;;;;;;;2.27;59.11;101510.69;5025360;28;20469;-79
2022/12/22 09:55:18;;;;;;;63.65;30.08;;;;;;;2.33;59.06;101517.31;5022745;28;20418;-77
2022/12/22 09:57:44;;;;;;;53.28;24.60;;;;;;;2.28;59.23;101526.25;5019027;28;20385;-80
2022/12/22 10:00:16;;;;;;;61.95;28.83;;;;;;;2.19;59.21;101507.69;5031345;28;20393;-79
2022/12/22 10:03:09;;;;;;;60.38;27.20;;;;;;;2.21;58.83;101516.28;5036183;28;20376;-78
2022/12/22 10:05:47;;;;;;;62.58;31.48;;;;;;;1.91;59.41;101522.50;5034532;28;20382;-79
2022/12/22 10:08:21;;;;;;;54.67;25.20;;;;;;;1.84;59.84;101506.31;5033592;28;20388;-79
2022/12/22 10:10:52;;;;;;;61.70;27.60;;;;;;;2.02;59.83;101496.50;5034846;28;20378;-82
2022/12/22 10:13:18;;;;;;;66.07;30.48;;;;;;;2.03;59.32;101494.72;5033751;28;20426;-78
2022/12/22 10:15:44;;;;;;;65.93;32.15;;;;;;;2.09;59.04;101491.75;5033072;28;20408;-80
2022/12/22 10:18:13;;;;;;;64.38;28.08;;;;;;;1.99;59.61;101477.56;5017925;28;21127;-80
2022/12/22 10:20:40;;;;;;;66.35;28.58;;;;;;;2.09;59.52;101484.72;5024137;28;20740;-82
2022/12/22 10:23:19;;;;;;;74.73;30.47;;;;;;;2.28;59.16;101484.41;5034153;28;20453;-77
2022/12/22 10:25:53;;;;;;;72.22;30.38;;;;;;;2.40;59.15;101476.72;5027857;28;20384;-78
2022/12/22 10:28:28;;;;;;;66.55;30.45;;;;;;;2.38;58.84;101468.97;5031053;28;20414;-79
2022/12/22 10:31:16;;;;;;;68.43;30.70;;;;;;;2.41;58.81;101462.69;5022663;28;20420;-79
2022/12/22 10:33:43;;;;;;;68.75;31.00;;;;;;;2.45;58.97;101462.41;5031837;28;20857;-79
2022/12/22 10:36:10;;;;;;;75.95;32.78;;;;;;;2.41;58.71;101452.22;5030483;28;20418;-77
2022/12/22 10:38:38;;;;;;;70.70;31.73;;;;;;;2.39;58.62;101462.78;5031836;28;20470;-78
2022/12/22 10:41:17;;;;;;;74.03;32.42;;;;;;;2.38;58.78;101457.69;5033393;28;20402;-78
2022/12/22 10:44:03;;;;;;;84.85;35.30;;;;;;;2.36;58.93;101449.91;5042042;28;20863;-78
2022/12/22 10:46:39;;;;;;;76.18;35.38;;;;;;;2.36;58.91;101449.91;5029671;28;20398;-78
2022/12/22 10:49:32;;;;;;;80.63;35.38;;;;;;;2.45;58.65;101453.72;5035354;28;20573;-78
2022/12/22 10:52:22;;;;;;;72.18;33.15;;;;;;;2.27;59.27;101446.13;5036350;28;20405;-79
2022/12/22 10:54:48;;;;;;;84.50;36.15;;;;;;;2.40;59.19;101438.31;5030409;28;20375;-78
2022/12/22 10:57:13;;;;;;;77.38;32.55;;;;;;;2.49;59.07;101439.50;5039555;28;20385;-79
2022/12/22 10:59:57;;;;;;;75.63;33.00;;;;;;;2.51;58.96;101439.41;5037251;28;20382;-79
2022/12/22 11:02:48;;;;;;;72.32;33.75;;;;;;;2.61;58.97;101430.84;5038211;28;20375;-80
2022/12/22 11:05:14;;;;;;;72.80;33.07;;;;;;;2.74;58.54;101427.41;5039245;28;20386;-79
2022/12/22 11:07:41;;;;;;;73.22;31.67;;;;;;;2.70;58.47;101423.31;5031211;28;20428;-81
2022/12/22 11:10:13;;;;;;;71.93;32.55;;;;;;;2.79;58.56;101418.31;5039833;28;20413;-80
2022/12/22 11:13:14;;;;;;;69.87;32.07;;;;;;;2.87;58.22;101421.25;5038324;28;20859;-79
2022/12/22 11:15:48;;;;;;;88.22;54.22;;;;;;;2.93;57.96;101413.94;5032732;28;20383;-82
2022/12/22 11:18:52;;;;;;;66.55;31.05;;;;;;;2.98;57.71;101424.94;5035143;28;20402;-78
2022/12/22 11:21:35;;;;;;;72.15;32.55;;;;;;;2.94;57.87;101397.28;5034590;28;20383;-78
2022/12/22 11:24:16;;;;;;;69.88;29.95;;;;;;;2.87;57.92;101400.31;5032831;28;20387;-79
2022/12/22 11:26:56;;;;;;;69.10;30.63;;;;;;;2.94;57.96;101399.91;5030971;28;20526;-78
2022/12/22 11:29:44;;;;;;;85.65;50.78;;;;;;;3.11;57.93;101404.00;5028018;28;20901;-80
2022/12/22 11:32:10;;;;;;;76.10;46.83;;;;;;;3.12;57.55;101400.44;5022817;28;20480;-80
2022/12/22 11:35:02;;;;;;;59.90;29.13;;;;;;;3.06;57.22;101388.56;5026695;28;20411;-80
2022/12/22 11:37:36;;;;;;;62.67;30.38;;;;;;;3.09;57.61;101387.53;5028859;28;20803;-80
2022/12/22 11:40:10;;;;;;;64.80;30.60;;;;;;;3.06;57.55;101388.56;5026522;28;20393;-82
2022/12/22 11:42:56;;;;;;;69.00;31.13;;;;;;;3.03;57.75;101386.19;5015779;28;20387;-80
2022/12/22 11:45:27;;;;;;;73.10;33.10;;;;;;;3.10;57.64;101373.50;5012486;28;20949;-78
2022/12/22 11:48:31;;;;;;;60.00;29.38;;;;;;;3.10;57.50;101368.25;5023220;28;20425;-78
2022/12/22 11:51:10;;;;;;;56.15;26.85;;;;;;;3.03;57.34;101373.91;5023141;28;20476;-78
2022/12/22 11:53:51;;;;;;;62.90;29.85;;;;;;;3.04;57.49;101374.75;5027757;28;20471;-77
2022/12/22 11:56:26;;;;;;;58.50;27.80;;;;;;;3.14;57.38;101362.72;5022134;28;20374;-79
2022/12/22 11:59:19;;;;;;;53.80;26.65;;;;;;;3.06;57.21;101355.38;5020784;28;20377;-79
2022/12/22 12:01:53;;;;;;;60.50;32.60;;;;;;;3.05;57.25;101364.19;5019752;28;20380;-79
2022/12/22 12:04:31;;;;;;;56.45;28.20;;;;;;;3.02;57.54;101353.06;5025903;28;20372;-80
2022/12/22 12:07:04;;;;;;;58.58;26.65;;;;;;;3.14;57.18;101359.25;5023580;28;20402;-80
2022/12/22 12:09:47;;;;;;;61.10;28.40;;;;;;;3.15;57.16;101358.31;5007785;28;20401;-80
2022/12/22 12:12:45;;;;;;;52.10;26.75;;;;;;;3.24;57.08;101355.03;5007738;28;20519;-78
2022/12/22 12:15:31;;;;;;;66.65;37.42;;;;;;;3.16;56.45;101360.81;4998519;28;20390;-79
2022/12/22 12:18:27;;;;;;;52.00;24.92;;;;;;;3.12;57.03;101354.13;5018007;28;20422;-78
2022/12/22 12:21:24;;;;;;;50.65;26.33;;;;;;;3.17;57.09;101346.78;5022578;28;20747;-79
2022/12/22 12:24:12;;;;;;;52.05;25.20;;;;;;;3.18;56.63;101345.81;5020352;28;20376;-80
2022/12/22 12:27:09;;;;;;;55.55;25.48;;;;;;;3.18;56.85;101342.38;5019233;28;20428;-80
2022/12/22 12:29:51;;;;;;;52.40;27.98;;;;;;;3.27;56.68;101351.38;5025264;28;20378;-79
2022/12/22 12:32:47;;;;;;;51.97;26.48;;;;;;;3.37;56.50;101344.56;5035277;28;20472;-82
2022/12/22 12:35:33;;;;;;;53.53;27.37;;;;;;;3.38;56.15;101338.38;5022270;28;20400;-81
2022/12/22 12:38:18;;;;;;;64.78;35.50;;;;;;;3.14;56.18;101333.06;5009750;28;20430;-80
2022/12/22 12:40:46;;;;;;;45.60;23.42;;;;;;;3.11;56.51;101343.75;4998952;28;20994;-79
2022/12/22 12:43:13;;;;;;;49.85;24.00;;;;;;;3.13;56.48;101334.81;5011174;28;21175;-78
2022/12/22 12:45:42;;;;;;;47.42;24.05;;;;;;;3.09;56.31;101332.53;5002858;28;20796;-79
2022/12/22 12:48:19;;;;;;;50.47;24.92;;;;;;;3.07;56.38;101332.63;5000507;28;20390;-79
2022/12/22 12:50:49;;;;;;;55.25;26.73;;;;;;;3.07;56.50;101332.63;5013739;28;20479;-80
2022/12/22 12:53:16;;;;;;;48.80;22.88;;;;;;;3.00;56.56;101334.00;5000841;28;20416;-78
2022/12/22 12:55:53;;;;;;;65.83;46.67;;;;;;;3.01;56.69;101343.56;5012590;28;20416;-79
2022/12/22 12:58:34;;;;;;;45.22;24.85;;;;;;;3.13;56.66;101334.00;5005214;28;20406;-78
2022/12/22 13:01:01;;;;;;;54.03;42.22;;;;;;;3.21;56.39;101339.56;5010229;28;20402;-78
2022/12/22 13:03:27;;;;;;;39.70;20.17;;;;;;;3.09;56.47;101333.38;5012332;28;20398;-78
2022/12/22 13:05:56;;;;;;;41.63;19.30;;;;;;;3.08;56.77;101339.56;5031692;28;20394;-80
2022/12/22 13:08:31;;;;;;;41.03;23.13;;;;;;;3.17;56.63;101335.44;5028739;28;20482;-78
2022/12/22 13:10:57;;;;;;;43.08;26.10;;;;;;;3.18;56.39;101339.75;5026290;28;20441;-78
2022/12/22 13:13:22;;;;;;;68.80;50.03;;;;;;;3.21;56.38;101329.91;5029783;28;20531;-78
2022/12/22 13:16:03;;;;;;;37.83;19.30;;;;;;;3.24;56.26;101329.69;5011890;28;20402;-78
2022/12/22 13:18:44;;;;;;;37.03;19.50;;;;;;;3.25;56.23;101333.16;5015388;28;20383;-79
2022/12/22 13:21:25;;;;;;;44.03;22.88;;;;;;;3.09;56.16;101335.16;5025713;28;20375;-80
2022/12/22 13:23:53;;;;;;;47.60;23.33;;;;;;;3.09;56.43;101332.53;5030911;28;20413;-78
2022/12/22 13:26:31;;;;;;;44.75;22.52;;;;;;;2.93;57.05;101330.97;5016910;28;20863;-80
2022/12/22 13:29:00;;;;;;;46.63;23.70;;;;;;;3.04;56.54;101338.09;5050552;28;20386;-81
2022/12/22 13:31:39;;;;;;;37.97;20.83;;;;;;;3.15;56.61;101325.09;5032803;28;21210;-80
2022/12/22 13:34:13;;;;;;;36.58;23.38;;;;;;;3.09;56.65;101324.69;5033321;28;20410;-79
2022/12/22 13:36:39;;;;;;;31.90;17.65;;;;;;;3.11;56.73;101323.63;5030666;28;20390;-79
2022/12/22 13:39:12;;;;;;;34.17;18.85;;;;;;;3.23;55.99;101328.00;5039405;28;22748;-77
2022/12/22 13:41:40;;;;;;;35.95;21.15;;;;;;;3.27;56.14;101319.94;5011070;28;20485;-78
2022/12/22 13:44:10;;;;;;;41.25;27.33;;;;;;;3.32;56.26;101321.28;5028607;28;20382;-79
2022/12/22 13:46:37;;;;;;;40.33;25.83;;;;;;;3.29;56.23;101316.25;5038056;28;20388;-78
2022/12/22 13:49:08;;;;;;;39.87;24.40;;;;;;;3.33;56.12;101311.63;5031398;28;20394;-79
2022/12/22 13:51:36;;;;;;;40.10;20.17;;;;;;;3.29;56.25;101326.75;5018819;28;20382;-78
2022/12/22 13:54:11;;;;;;;36.53;18.77;;;;;;;3.09;56.25;101327.31;5034663;28;20956;-78
2022/12/22 13:56:49;;;;;;;42.03;20.23;;;;;;;3.04;56.78;101314.50;5025649;28;20383;-78
2022/12/22 13:59:30;;;;;;;43.40;25.17;;;;;;;3.10;56.58;101318.47;5024122;28;20395;-79
2022/12/22 14:02:08;;;;;;;51.17;30.77;;;;;;;3.09;56.73;101322.88;5027993;28;20398;-81
2022/12/22 14:04:36;;;;;;;39.38;22.85;;;;;;;3.12;56.20;101319.25;5016990;28;20419;-77
2022/12/22 14:07:17;;;;;;;35.23;20.20;;;;;;;3.18;56.49;101313.56;5029999;28;20428;-79
2022/12/22 14:09:47;;;;;;;38.95;20.27;;;;;;;3.02;56.40;101316.41;5032340;28;20957;-78
2022/12/22 14:12:17;;;;;;;41.38;20.90;;;;;;;2.95;56.57;101310.75;5026377;28;20494;-79
2022/12/22 14:14:45;;;;;;;38.45;20.77;;;;;;;2.90;56.87;101309.38;5036407;28;20416;-78
2022/12/22 14:17:35;;;;;;;37.22;22.20;;;;;;;2.98;56.43;101312.31;5028226;28;20797;-80
2022/12/22 14:20:34;;;;;;;43.97;25.55;;;;;;;3.02;56.47;101309.38;5018458;28;20717;-79
2022/12/22 14:23:20;;;;;;;36.72;21.13;;;;;;;2.96;56.47;101304.56;5011299;28;20370;-80
2022/12/22 14:25:48;;;;;;;40.40;21.02;;;;;;;2.93;56.47;101304.78;5030028;28;20444;-78
2022/12/22 14:28:19;;;;;;;48.42;27.15;;;;;;;2.95;56.75;101313.34;5036406;28;20860;-78
2022/12/22 14:30:49;;;;;;;47.67;31.17;;;;;;;2.94;56.62;101303.84;5008628;28;20430;-77
2022/12/22 14:33:26;;;;;;;40.80;22.65;;;;;;;2.93;56.64;101306.56;5028151;28;20412;-79
2022/12/22 14:36:14;;;;;;;47.17;23.15;;;;;;;2.95;56.62;101308.13;5034613;28;20472;-79
2022/12/22 14:38:42;;;;;;;44.35;26.42;;;;;;;2.95;56.69;101299.44;5035100;28;20490;-79
2022/12/22 14:44:17;;;;;;;47.38;29.75;;;;;;;2.92;56.65;101297.03;5029393;28;20397;-82
2022/12/22 14:46:44;;;;;;;52.08;28.10;;;;;;;2.89;56.68;101298.09;5033841;28;21073;-80
2022/12/22 14:49:16;;;;;;;47.03;25.27;;;;;;;2.79;56.85;101300.50;5029264;28;20824;-79
2022/12/22 14:51:51;;;;;;;50.00;26.73;;;;;;;2.79;57.29;101303.13;5016626;28;20455;-80
2022/12/22 14:54:25;;;;;;;50.95;26.23;;;;;;;2.86;56.90;101303.53;5034471;28;20447;-79
2022/12/22 14:56:55;;;;;;;51.90;30.10;;;;;;;2.90;56.82;101310.25;5030507;28;20413;-80
2022/12/22 14:59:28;;;;;;;56.28;28.13;;;;;;;2.85;56.91;101304.47;5007666;28;20429;-78
2022/12/22 15:02:02;;;;;;;55.97;26.48;;;;;;;2.91;57.08;101303.22;5028190;28;20386;-79
2022/12/22 15:04:29;;;;;;;57.03;27.10;;;;;;;2.95;56.97;101307.28;5027601;28;20555;-82
2022/12/22 15:07:14;;;;;;;56.33;26.58;;;;;;;2.84;57.01;101303.63;5013168;28;20406;-78
2022/12/22 15:09:40;;;;;;;54.63;29.58;;;;;;;2.93;56.90;101304.78;5020244;28;20395;-81
2022/12/22 15:12:12;;;;;;;52.83;27.03;;;;;;;2.85;56.92;101304.47;5019546;28;20407;-77
2022/12/22 15:14:37;;;;;;;61.80;30.95;;;;;;;2.81;57.02;101297.75;5011011;28;20398;-78
2022/12/22 15:17:05;;;;;;;78.55;38.55;;;;;;;2.86;57.31;101301.75;5016032;28;20465;-78
2022/12/22 15:19:33;;;;;;;91.90;59.13;;;;;;;2.96;57.17;101296.72;5012933;28;20524;-78
2022/12/22 15:21:59;;;;;;;74.25;38.72;;;;;;;3.01;56.78;101304.28;5006168;28;20415;-78